sensor_id;sensor_type;location;lat;lon;timestamp;P1;durP1;ratioP1;P2;durP2;ratioP2
27670;SDS011;15077;49.704;9.908;2023-02-01T00:00:20;6.82;;;4.45;;
27670;SDS011;15077;49.704;9.908;2023-02-01T00:02:46;6.35;;;4.40;;
27670;SDS011;15077;49.704;9.908;2023-02-01T00:05:12;7.20;;;5.03;;
27670;SDS011;15077;49.704;9.908;2023-02-01T00:07:37;6.82;;;5.00;;
27670;SDS011;15077;49.704;9.908;2023-02-01T00:10:04;7.22;;;5.10;;
27670;SDS011;15077;49.704;9.908;2023-02-01T00:12:31;6.57;;;4.90;;
27670;SDS011;15077;49.704;9.908;2023-02-01T00:14:57;6.88;;;4.70;;
27670;SDS011;15077;49.704;9.908;2023-02-01T00:17:23;6.60;;;5.10;;
27670;SDS011;15077;49.704;9.908;2023-02-01T00:19:49;6.75;;;4.70;;
27670;SDS011;15077;49.704;9.908;2023-02-01T00:22:15;6.85;;;4.90;;
27670;SDS011;15077;49.704;9.908;2023-02-01T00:24:41;7.88;;;5.18;;
27670;SDS011;15077;49.704;9.908;2023-02-01T00:27:06;8.73;;;5.32;;
27670;SDS011;15077;49.704;9.908;2023-02-01T00:29:32;6.35;;;4.88;;
27670;SDS011;15077;49.704;9.908;2023-02-01T00:31:58;7.88;;;4.72;;
27670;SDS011;15077;49.704;9.908;2023-02-01T00:34:24;5.43;;;4.28;;
27670;SDS011;15077;49.704;9.908;2023-02-01T00:36:50;6.63;;;4.50;;
27670;SDS011;15077;49.704;9.908;2023-02-01T00:39:16;7.35;;;4.95;;
27670;SDS011;15077;49.704;9.908;2023-02-01T00:41:41;7.80;;;5.28;;
27670;SDS011;15077;49.704;9.908;2023-02-01T00:44:08;5.07;;;4.18;;
27670;SDS011;15077;49.704;9.908;2023-02-01T00:46:33;9.23;;;4.72;;
27670;SDS011;15077;49.704;9.908;2023-02-01T00:48:59;8.55;;;5.57;;
27670;SDS011;15077;49.704;9.908;2023-02-01T00:51:26;10.65;;;5.45;;
27670;SDS011;15077;49.704;9.908;2023-02-01T00:53:54;8.77;;;5.53;;
27670;SDS011;15077;49.704;9.908;2023-02-01T00:56:21;6.97;;;5.30;;
27670;SDS011;15077;49.704;9.908;2023-02-01T00:58:49;8.48;;;5.47;;
27670;SDS011;15077;49.704;9.908;2023-02-01T01:01:18;10.00;;;5.45;;
27670;SDS011;15077;49.704;9.908;2023-02-01T01:03:55;7.10;;;5.38;;
27670;SDS011;15077;49.704;9.908;2023-02-01T01:06:26;7.03;;;5.32;;
27670;SDS011;15077;49.704;9.908;2023-02-01T01:08:57;7.55;;;5.05;;
27670;SDS011;15077;49.704;9.908;2023-02-01T01:11:28;7.10;;;5.13;;
27670;SDS011;15077;49.704;9.908;2023-02-01T01:13:57;6.88;;;5.68;;
27670;SDS011;15077;49.704;9.908;2023-02-01T01:16:25;7.10;;;5.15;;
27670;SDS011;15077;49.704;9.908;2023-02-01T01:18:58;7.70;;;5.35;;
27670;SDS011;15077;49.704;9.908;2023-02-01T01:21:29;7.68;;;5.57;;
27670;SDS011;15077;49.704;9.908;2023-02-01T01:23:56;7.20;;;6.05;;
27670;SDS011;15077;49.704;9.908;2023-02-01T01:26:23;7.85;;;5.30;;
27670;SDS011;15077;49.704;9.908;2023-02-01T01:28:53;8.23;;;5.90;;
27670;SDS011;15077;49.704;9.908;2023-02-01T01:31:22;7.97;;;5.65;;
27670;SDS011;15077;49.704;9.908;2023-02-01T01:33:51;9.27;;;5.45;;
27670;SDS011;15077;49.704;9.908;2023-02-01T01:36:20;7.88;;;5.35;;
27670;SDS011;15077;49.704;9.908;2023-02-01T01:38:47;8.15;;;5.88;;
27670;SDS011;15077;49.704;9.908;2023-02-01T01:41:24;8.60;;;6.35;;
27670;SDS011;15077;49.704;9.908;2023-02-01T01:46:34;7.38;;;5.47;;
27670;SDS011;15077;49.704;9.908;2023-02-01T01:49:10;8.32;;;5.95;;
27670;SDS011;15077;49.704;9.908;2023-02-01T01:51:45;7.97;;;5.53;;
27670;SDS011;15077;49.704;9.908;2023-02-01T01:54:25;8.07;;;5.28;;
27670;SDS011;15077;49.704;9.908;2023-02-01T01:56:57;7.05;;;5.40;;
27670;SDS011;15077;49.704;9.908;2023-02-01T01:59:38;9.45;;;6.85;;
27670;SDS011;15077;49.704;9.908;2023-02-01T02:02:11;6.63;;;4.70;;
27670;SDS011;15077;49.704;9.908;2023-02-01T02:04:37;7.07;;;5.20;;
27670;SDS011;15077;49.704;9.908;2023-02-01T02:07:10;7.13;;;5.10;;
27670;SDS011;15077;49.704;9.908;2023-02-01T02:09:43;6.60;;;4.70;;
27670;SDS011;15077;49.704;9.908;2023-02-01T02:12:09;5.40;;;4.05;;
27670;SDS011;15077;49.704;9.908;2023-02-01T02:14:35;5.75;;;3.92;;
27670;SDS011;15077;49.704;9.908;2023-02-01T02:26:06;4.53;;;3.63;;
27670;SDS011;15077;49.704;9.908;2023-02-01T02:40:37;7.75;;;4.70;;
27670;SDS011;15077;49.704;9.908;2023-02-01T02:44:12;5.85;;;4.07;;
27670;SDS011;15077;49.704;9.908;2023-02-01T02:47:14;6.40;;;4.35;;
27670;SDS011;15077;49.704;9.908;2023-02-01T02:53:14;6.72;;;4.40;;
27670;SDS011;15077;49.704;9.908;2023-02-01T02:56:04;6.53;;;4.75;;
27670;SDS011;15077;49.704;9.908;2023-02-01T02:58:51;10.27;;;5.97;;
27670;SDS011;15077;49.704;9.908;2023-02-01T03:01:37;9.68;;;6.15;;
27670;SDS011;15077;49.704;9.908;2023-02-01T03:04:24;16.23;;;10.25;;
27670;SDS011;15077;49.704;9.908;2023-02-01T03:06:51;16.90;;;9.32;;
27670;SDS011;15077;49.704;9.908;2023-02-01T03:12:04;10.52;;;6.85;;
27670;SDS011;15077;49.704;9.908;2023-02-01T03:15:03;9.88;;;6.35;;
27670;SDS011;15077;49.704;9.908;2023-02-01T03:17:38;10.45;;;7.63;;
27670;SDS011;15077;49.704;9.908;2023-02-01T03:20:08;7.60;;;5.68;;
27670;SDS011;15077;49.704;9.908;2023-02-01T03:22:39;8.23;;;5.40;;
27670;SDS011;15077;49.704;9.908;2023-02-01T03:25:16;5.95;;;4.57;;
27670;SDS011;15077;49.704;9.908;2023-02-01T03:30:28;7.32;;;3.38;;
27670;SDS011;15077;49.704;9.908;2023-02-01T03:33:08;5.07;;;4.00;;
27670;SDS011;15077;49.704;9.908;2023-02-01T03:38:44;7.20;;;4.82;;
27670;SDS011;15077;49.704;9.908;2023-02-01T03:44:24;6.00;;;4.40;;
27670;SDS011;15077;49.704;9.908;2023-02-01T03:47:16;7.43;;;5.43;;
27670;SDS011;15077;49.704;9.908;2023-02-01T03:49:54;6.82;;;4.28;;
27670;SDS011;15077;49.704;9.908;2023-02-01T03:52:40;6.85;;;4.50;;
27670;SDS011;15077;49.704;9.908;2023-02-01T03:55:15;5.10;;;3.78;;
27670;SDS011;15077;49.704;9.908;2023-02-01T03:57:50;5.60;;;4.18;;
27670;SDS011;15077;49.704;9.908;2023-02-01T04:00:32;4.55;;;3.22;;
27670;SDS011;15077;49.704;9.908;2023-02-01T04:02:58;4.28;;;2.10;;
27670;SDS011;15077;49.704;9.908;2023-02-01T04:05:24;3.78;;;1.90;;
27670;SDS011;15077;49.704;9.908;2023-02-01T04:07:50;4.32;;;2.05;;
27670;SDS011;15077;49.704;9.908;2023-02-01T04:10:16;3.55;;;1.48;;
27670;SDS011;15077;49.704;9.908;2023-02-01T04:12:42;3.53;;;1.27;;
27670;SDS011;15077;49.704;9.908;2023-02-01T04:15:08;4.50;;;1.80;;
27670;SDS011;15077;49.704;9.908;2023-02-01T04:17:34;9.52;;;6.05;;
27670;SDS011;15077;49.704;9.908;2023-02-01T04:20:00;5.45;;;2.50;;
27670;SDS011;15077;49.704;9.908;2023-02-01T04:22:30;2.58;;;1.92;;
27670;SDS011;15077;49.704;9.908;2023-02-01T04:24:58;2.05;;;0.98;;
27670;SDS011;15077;49.704;9.908;2023-02-01T04:27:23;5.35;;;1.77;;
27670;SDS011;15077;49.704;9.908;2023-02-01T04:29:49;6.28;;;2.72;;
27670;SDS011;15077;49.704;9.908;2023-02-01T04:32:17;3.92;;;2.20;;
27670;SDS011;15077;49.704;9.908;2023-02-01T04:34:45;3.35;;;1.63;;
27670;SDS011;15077;49.704;9.908;2023-02-01T04:37:11;4.15;;;1.25;;
27670;SDS011;15077;49.704;9.908;2023-02-01T04:39:37;6.07;;;1.92;;
27670;SDS011;15077;49.704;9.908;2023-02-01T04:42:03;5.90;;;2.60;;
27670;SDS011;15077;49.704;9.908;2023-02-01T04:44:29;4.30;;;2.20;;
27670;SDS011;15077;49.704;9.908;2023-02-01T04:46:55;11.07;;;2.92;;
27670;SDS011;15077;49.704;9.908;2023-02-01T04:49:23;7.43;;;3.58;;
27670;SDS011;15077;49.704;9.908;2023-02-01T04:51:51;8.20;;;4.00;;
27670;SDS011;15077;49.704;9.908;2023-02-01T04:54:16;6.35;;;2.03;;
27670;SDS011;15077;49.704;9.908;2023-02-01T04:56:42;8.20;;;2.17;;
27670;SDS011;15077;49.704;9.908;2023-02-01T04:59:10;3.70;;;1.95;;
27670;SDS011;15077;49.704;9.908;2023-02-01T05:01:37;6.35;;;1.92;;
27670;SDS011;15077;49.704;9.908;2023-02-01T05:04:03;3.78;;;1.20;;
27670;SDS011;15077;49.704;9.908;2023-02-01T05:06:29;1.83;;;0.70;;
27670;SDS011;15077;49.704;9.908;2023-02-01T05:08:54;4.20;;;2.15;;
27670;SDS011;15077;49.704;9.908;2023-02-01T05:11:20;3.95;;;2.72;;
27670;SDS011;15077;49.704;9.908;2023-02-01T05:14:04;17.58;;;8.73;;
27670;SDS011;15077;49.704;9.908;2023-02-01T05:16:30;9.15;;;5.50;;
27670;SDS011;15077;49.704;9.908;2023-02-01T05:18:56;6.88;;;4.20;;
27670;SDS011;15077;49.704;9.908;2023-02-01T05:21:21;3.13;;;2.03;;
27670;SDS011;15077;49.704;9.908;2023-02-01T05:23:47;4.03;;;2.97;;
27670;SDS011;15077;49.704;9.908;2023-02-01T05:26:32;2.67;;;1.55;;
27670;SDS011;15077;49.704;9.908;2023-02-01T05:28:58;2.92;;;1.90;;
27670;SDS011;15077;49.704;9.908;2023-02-01T05:31:24;2.63;;;2.17;;
27670;SDS011;15077;49.704;9.908;2023-02-01T05:33:50;3.83;;;3.47;;
27670;SDS011;15077;49.704;9.908;2023-02-01T05:36:16;3.13;;;2.40;;
27670;SDS011;15077;49.704;9.908;2023-02-01T05:38:42;1.88;;;1.70;;
27670;SDS011;15077;49.704;9.908;2023-02-01T05:41:08;1.25;;;0.68;;
27670;SDS011;15077;49.704;9.908;2023-02-01T05:43:34;1.88;;;1.17;;
27670;SDS011;15077;49.704;9.908;2023-02-01T05:45:59;1.40;;;0.70;;
27670;SDS011;15077;49.704;9.908;2023-02-01T05:48:25;1.98;;;0.88;;
27670;SDS011;15077;49.704;9.908;2023-02-01T05:50:51;1.40;;;1.00;;
27670;SDS011;15077;49.704;9.908;2023-02-01T05:53:17;1.40;;;1.10;;
27670;SDS011;15077;49.704;9.908;2023-02-01T05:55:43;1.50;;;1.20;;
27670;SDS011;15077;49.704;9.908;2023-02-01T05:58:08;1.40;;;1.20;;
27670;SDS011;15077;49.704;9.908;2023-02-01T06:00:34;1.48;;;1.08;;
27670;SDS011;15077;49.704;9.908;2023-02-01T06:03:00;1.58;;;0.98;;
27670;SDS011;15077;49.704;9.908;2023-02-01T06:05:26;2.20;;;1.00;;
27670;SDS011;15077;49.704;9.908;2023-02-01T06:07:52;1.60;;;1.20;;
27670;SDS011;15077;49.704;9.908;2023-02-01T06:10:18;3.72;;;1.15;;
27670;SDS011;15077;49.704;9.908;2023-02-01T06:12:44;2.05;;;1.10;;
27670;SDS011;15077;49.704;9.908;2023-02-01T06:15:11;1.88;;;1.15;;
27670;SDS011;15077;49.704;9.908;2023-02-01T06:17:40;2.22;;;1.30;;
27670;SDS011;15077;49.704;9.908;2023-02-01T06:20:08;2.80;;;1.30;;
27670;SDS011;15077;49.704;9.908;2023-02-01T06:22:36;2.55;;;1.40;;
27670;SDS011;15077;49.704;9.908;2023-02-01T06:25:03;2.72;;;1.63;;
27670;SDS011;15077;49.704;9.908;2023-02-01T06:27:31;2.33;;;1.48;;
27670;SDS011;15077;49.704;9.908;2023-02-01T06:29:58;2.10;;;1.42;;
27670;SDS011;15077;49.704;9.908;2023-02-01T06:32:24;4.05;;;2.70;;
27670;SDS011;15077;49.704;9.908;2023-02-01T06:34:50;5.38;;;3.38;;
27670;SDS011;15077;49.704;9.908;2023-02-01T06:37:17;3.83;;;1.98;;
27670;SDS011;15077;49.704;9.908;2023-02-01T06:39:44;10.60;;;2.25;;
27670;SDS011;15077;49.704;9.908;2023-02-01T06:42:10;3.00;;;2.20;;
27670;SDS011;15077;49.704;9.908;2023-02-01T06:44:36;3.88;;;2.50;;
27670;SDS011;15077;49.704;9.908;2023-02-01T06:47:03;2.83;;;1.73;;
27670;SDS011;15077;49.704;9.908;2023-02-01T06:49:29;3.67;;;1.88;;
27670;SDS011;15077;49.704;9.908;2023-02-01T06:51:55;3.08;;;2.08;;
27670;SDS011;15077;49.704;9.908;2023-02-01T06:54:21;2.67;;;1.70;;
27670;SDS011;15077;49.704;9.908;2023-02-01T06:56:47;4.43;;;2.30;;
27670;SDS011;15077;49.704;9.908;2023-02-01T06:59:13;4.65;;;1.95;;
27670;SDS011;15077;49.704;9.908;2023-02-01T07:01:39;5.18;;;2.00;;
27670;SDS011;15077;49.704;9.908;2023-02-01T07:04:04;5.07;;;1.55;;
27670;SDS011;15077;49.704;9.908;2023-02-01T07:06:30;3.40;;;2.92;;
27670;SDS011;15077;49.704;9.908;2023-02-01T07:08:56;6.45;;;3.10;;
27670;SDS011;15077;49.704;9.908;2023-02-01T07:11:22;3.63;;;2.35;;
27670;SDS011;15077;49.704;9.908;2023-02-01T07:13:48;3.83;;;1.75;;
27670;SDS011;15077;49.704;9.908;2023-02-01T07:16:16;3.00;;;2.08;;
27670;SDS011;15077;49.704;9.908;2023-02-01T07:18:44;3.67;;;1.80;;
27670;SDS011;15077;49.704;9.908;2023-02-01T07:21:10;8.13;;;2.78;;
27670;SDS011;15077;49.704;9.908;2023-02-01T07:23:36;2.97;;;1.75;;
27670;SDS011;15077;49.704;9.908;2023-02-01T07:26:04;3.38;;;2.03;;
27670;SDS011;15077;49.704;9.908;2023-02-01T07:28:32;2.53;;;1.88;;
27670;SDS011;15077;49.704;9.908;2023-02-01T07:31:04;3.88;;;2.30;;
27670;SDS011;15077;49.704;9.908;2023-02-01T07:33:33;4.22;;;2.10;;
27670;SDS011;15077;49.704;9.908;2023-02-01T07:36:00;3.30;;;1.80;;
27670;SDS011;15077;49.704;9.908;2023-02-01T07:38:29;6.13;;;3.45;;
27670;SDS011;15077;49.704;9.908;2023-02-01T07:40:58;8.75;;;5.03;;
27670;SDS011;15077;49.704;9.908;2023-02-01T07:43:26;11.48;;;4.80;;
27670;SDS011;15077;49.704;9.908;2023-02-01T07:45:54;7.57;;;4.40;;
27670;SDS011;15077;49.704;9.908;2023-02-01T07:48:21;3.97;;;2.85;;
27670;SDS011;15077;49.704;9.908;2023-02-01T07:50:48;4.35;;;2.35;;
27670;SDS011;15077;49.704;9.908;2023-02-01T07:53:23;3.17;;;1.95;;
27670;SDS011;15077;49.704;9.908;2023-02-01T07:55:49;4.00;;;2.17;;
27670;SDS011;15077;49.704;9.908;2023-02-01T07:58:15;3.47;;;1.75;;
27670;SDS011;15077;49.704;9.908;2023-02-01T08:00:40;4.28;;;2.08;;
27670;SDS011;15077;49.704;9.908;2023-02-01T08:03:24;3.70;;;1.98;;
27670;SDS011;15077;49.704;9.908;2023-02-01T08:05:54;2.45;;;1.75;;
27670;SDS011;15077;49.704;9.908;2023-02-01T08:08:20;7.28;;;2.55;;
27670;SDS011;15077;49.704;9.908;2023-02-01T08:10:46;3.03;;;2.13;;
27670;SDS011;15077;49.704;9.908;2023-02-01T08:13:12;5.55;;;2.25;;
27670;SDS011;15077;49.704;9.908;2023-02-01T08:15:38;5.07;;;2.65;;
27670;SDS011;15077;49.704;9.908;2023-02-01T08:18:05;5.20;;;2.90;;
27670;SDS011;15077;49.704;9.908;2023-02-01T08:20:31;5.25;;;2.55;;
27670;SDS011;15077;49.704;9.908;2023-02-01T08:22:59;5.13;;;3.05;;
27670;SDS011;15077;49.704;9.908;2023-02-01T08:25:25;6.70;;;2.60;;
27670;SDS011;15077;49.704;9.908;2023-02-01T08:27:50;6.78;;;2.38;;
27670;SDS011;15077;49.704;9.908;2023-02-01T08:30:17;8.07;;;2.65;;
27670;SDS011;15077;49.704;9.908;2023-02-01T08:32:43;7.00;;;2.20;;
27670;SDS011;15077;49.704;9.908;2023-02-01T08:35:08;5.18;;;1.88;;
27670;SDS011;15077;49.704;9.908;2023-02-01T08:37:34;5.90;;;2.13;;
27670;SDS011;15077;49.704;9.908;2023-02-01T08:40:00;5.82;;;2.58;;
27670;SDS011;15077;49.704;9.908;2023-02-01T08:42:27;8.20;;;2.10;;
27670;SDS011;15077;49.704;9.908;2023-02-01T08:45:11;5.35;;;2.58;;
27670;SDS011;15077;49.704;9.908;2023-02-01T08:47:37;5.22;;;1.85;;
27670;SDS011;15077;49.704;9.908;2023-02-01T08:50:03;5.07;;;2.38;;
27670;SDS011;15077;49.704;9.908;2023-02-01T08:52:29;6.25;;;1.95;;
27670;SDS011;15077;49.704;9.908;2023-02-01T08:54:54;8.88;;;2.90;;
27670;SDS011;15077;49.704;9.908;2023-02-01T08:57:20;5.10;;;2.63;;
27670;SDS011;15077;49.704;9.908;2023-02-01T08:59:46;6.53;;;2.67;;
27670;SDS011;15077;49.704;9.908;2023-02-01T09:02:12;9.60;;;3.35;;
27670;SDS011;15077;49.704;9.908;2023-02-01T09:04:40;6.32;;;3.13;;
27670;SDS011;15077;49.704;9.908;2023-02-01T09:07:06;6.68;;;2.95;;
27670;SDS011;15077;49.704;9.908;2023-02-01T09:09:33;11.15;;;3.80;;
27670;SDS011;15077;49.704;9.908;2023-02-01T09:11:59;9.52;;;3.90;;
27670;SDS011;15077;49.704;9.908;2023-02-01T09:14:25;10.30;;;3.08;;
27670;SDS011;15077;49.704;9.908;2023-02-01T09:16:51;5.95;;;3.15;;
27670;SDS011;15077;49.704;9.908;2023-02-01T09:19:16;6.28;;;3.53;;
27670;SDS011;15077;49.704;9.908;2023-02-01T09:21:42;10.77;;;4.68;;
27670;SDS011;15077;49.704;9.908;2023-02-01T09:24:09;11.10;;;4.35;;
27670;SDS011;15077;49.704;9.908;2023-02-01T09:26:36;12.45;;;3.63;;
27670;SDS011;15077;49.704;9.908;2023-02-01T09:29:02;8.27;;;4.07;;
27670;SDS011;15077;49.704;9.908;2023-02-01T09:31:31;7.43;;;3.28;;
27670;SDS011;15077;49.704;9.908;2023-02-01T09:33:56;11.80;;;4.00;;
27670;SDS011;15077;49.704;9.908;2023-02-01T09:36:22;9.73;;;4.00;;
27670;SDS011;15077;49.704;9.908;2023-02-01T09:38:49;6.65;;;3.30;;
27670;SDS011;15077;49.704;9.908;2023-02-01T09:41:39;11.02;;;3.17;;
27670;SDS011;15077;49.704;9.908;2023-02-01T09:47:14;7.28;;;3.53;;
27670;SDS011;15077;49.704;9.908;2023-02-01T09:49:51;7.57;;;3.60;;
27670;SDS011;15077;49.704;9.908;2023-02-01T09:55:45;11.98;;;4.20;;
27670;SDS011;15077;49.704;9.908;2023-02-01T09:58:34;10.98;;;3.90;;
27670;SDS011;15077;49.704;9.908;2023-02-01T10:01:23;8.07;;;2.78;;
27670;SDS011;15077;49.704;9.908;2023-02-01T10:04:24;13.13;;;3.30;;
27670;SDS011;15077;49.704;9.908;2023-02-01T10:24:11;9.43;;;2.92;;
27670;SDS011;15077;49.704;9.908;2023-02-01T10:29:36;9.33;;;2.70;;
27670;SDS011;15077;49.704;9.908;2023-02-01T10:32:15;11.65;;;3.67;;
27670;SDS011;15077;49.704;9.908;2023-02-01T10:34:46;5.43;;;2.42;;
27670;SDS011;15077;49.704;9.908;2023-02-01T10:39:59;9.93;;;2.88;;
27670;SDS011;15077;49.704;9.908;2023-02-01T10:42:44;6.90;;;2.90;;
27670;SDS011;15077;49.704;9.908;2023-02-01T10:45:21;11.68;;;3.22;;
27670;SDS011;15077;49.704;9.908;2023-02-01T10:47:51;11.98;;;3.20;;
27670;SDS011;15077;49.704;9.908;2023-02-01T10:53:25;7.88;;;3.47;;
27670;SDS011;15077;49.704;9.908;2023-02-01T10:56:08;9.13;;;2.47;;
27670;SDS011;15077;49.704;9.908;2023-02-01T10:58:36;7.22;;;2.80;;
27670;SDS011;15077;49.704;9.908;2023-02-01T11:01:31;7.53;;;2.60;;
27670;SDS011;15077;49.704;9.908;2023-02-01T11:04:05;8.45;;;3.13;;
27670;SDS011;15077;49.704;9.908;2023-02-01T11:06:45;7.28;;;2.97;;
27670;SDS011;15077;49.704;9.908;2023-02-01T11:09:18;10.63;;;3.65;;
27670;SDS011;15077;49.704;9.908;2023-02-01T11:16:53;6.85;;;2.35;;
27670;SDS011;15077;49.704;9.908;2023-02-01T11:19:55;7.65;;;2.17;;
27670;SDS011;15077;49.704;9.908;2023-02-01T11:22:30;4.53;;;2.17;;
27670;SDS011;15077;49.704;9.908;2023-02-01T11:25:09;9.13;;;2.90;;
27670;SDS011;15077;49.704;9.908;2023-02-01T11:27:40;10.48;;;2.53;;
27670;SDS011;15077;49.704;9.908;2023-02-01T11:30:06;6.72;;;2.30;;
27670;SDS011;15077;49.704;9.908;2023-02-01T11:32:39;6.60;;;2.20;;
27670;SDS011;15077;49.704;9.908;2023-02-01T11:35:05;6.63;;;2.35;;
27670;SDS011;15077;49.704;9.908;2023-02-01T11:37:40;11.30;;;5.47;;
27670;SDS011;15077;49.704;9.908;2023-02-01T11:45:32;9.88;;;2.65;;
27670;SDS011;15077;49.704;9.908;2023-02-01T11:48:00;8.07;;;2.47;;
27670;SDS011;15077;49.704;9.908;2023-02-01T11:50:38;8.82;;;2.97;;
27670;SDS011;15077;49.704;9.908;2023-02-01T12:26:05;7.88;;;2.65;;
27670;SDS011;15077;49.704;9.908;2023-02-01T12:46:01;12.25;;;4.05;;
27670;SDS011;15077;49.704;9.908;2023-02-01T12:48:42;10.77;;;2.92;;
27670;SDS011;15077;49.704;9.908;2023-02-01T12:51:43;10.38;;;2.53;;
27670;SDS011;15077;49.704;9.908;2023-02-01T12:57:21;9.77;;;2.35;;
27670;SDS011;15077;49.704;9.908;2023-02-01T13:02:52;7.97;;;2.17;;
27670;SDS011;15077;49.704;9.908;2023-02-01T13:05:51;6.70;;;2.25;;
27670;SDS011;15077;49.704;9.908;2023-02-01T13:08:36;7.15;;;2.38;;
27670;SDS011;15077;49.704;9.908;2023-02-01T13:11:24;8.30;;;3.00;;
27670;SDS011;15077;49.704;9.908;2023-02-01T13:17:09;8.18;;;2.75;;
27670;SDS011;15077;49.704;9.908;2023-02-01T13:22:27;5.75;;;1.98;;
27670;SDS011;15077;49.704;9.908;2023-02-01T13:24:59;9.48;;;1.92;;
27670;SDS011;15077;49.704;9.908;2023-02-01T13:27:36;8.75;;;2.20;;
27670;SDS011;15077;49.704;9.908;2023-02-01T13:30:15;7.20;;;1.90;;
27670;SDS011;15077;49.704;9.908;2023-02-01T13:32:52;8.93;;;3.03;;
27670;SDS011;15077;49.704;9.908;2023-02-01T13:36:10;10.32;;;2.63;;
27670;SDS011;15077;49.704;9.908;2023-02-01T13:41:55;7.32;;;2.25;;
27670;SDS011;15077;49.704;9.908;2023-02-01T13:49:51;10.65;;;2.90;;
27670;SDS011;15077;49.704;9.908;2023-02-01T13:52:24;5.97;;;2.83;;
27670;SDS011;15077;49.704;9.908;2023-02-01T13:57:41;11.10;;;2.55;;
27670;SDS011;15077;49.704;9.908;2023-02-01T14:00:26;6.07;;;2.20;;
27670;SDS011;15077;49.704;9.908;2023-02-01T14:13:32;8.30;;;2.40;;
27670;SDS011;15077;49.704;9.908;2023-02-01T14:26:19;6.70;;;2.72;;
27670;SDS011;15077;49.704;9.908;2023-02-01T14:34:39;6.45;;;2.13;;
27670;SDS011;15077;49.704;9.908;2023-02-01T14:37:12;7.03;;;2.67;;
27670;SDS011;15077;49.704;9.908;2023-02-01T14:50:31;8.98;;;2.63;;
27670;SDS011;15077;49.704;9.908;2023-02-01T15:01:29;9.05;;;2.05;;
27670;SDS011;15077;49.704;9.908;2023-02-01T15:04:03;6.35;;;2.00;;
27670;SDS011;15077;49.704;9.908;2023-02-01T15:09:31;8.52;;;2.33;;
27670;SDS011;15077;49.704;9.908;2023-02-01T15:12:08;15.32;;;4.32;;
27670;SDS011;15077;49.704;9.908;2023-02-01T15:15:03;11.88;;;3.35;;
27670;SDS011;15077;49.704;9.908;2023-02-01T15:17:38;9.20;;;2.35;;
27670;SDS011;15077;49.704;9.908;2023-02-01T15:22:53;9.40;;;3.40;;
27670;SDS011;15077;49.704;9.908;2023-02-01T15:25:28;12.43;;;3.75;;
27670;SDS011;15077;49.704;9.908;2023-02-01T15:28:00;6.63;;;2.60;;
27670;SDS011;15077;49.704;9.908;2023-02-01T15:30:27;8.32;;;2.17;;
27670;SDS011;15077;49.704;9.908;2023-02-01T15:33:16;10.02;;;4.88;;
27670;SDS011;15077;49.704;9.908;2023-02-01T15:35:48;10.25;;;4.10;;
27670;SDS011;15077;49.704;9.908;2023-02-01T15:43:41;8.30;;;2.67;;
27670;SDS011;15077;49.704;9.908;2023-02-01T15:46:38;7.35;;;2.20;;
27670;SDS011;15077;49.704;9.908;2023-02-01T15:49:23;6.80;;;2.65;;
27670;SDS011;15077;49.704;9.908;2023-02-01T15:52:00;12.90;;;2.88;;
27670;SDS011;15077;49.704;9.908;2023-02-01T15:54:28;11.07;;;3.40;;
27670;SDS011;15077;49.704;9.908;2023-02-01T15:57:26;10.63;;;3.00;;
27670;SDS011;15077;49.704;9.908;2023-02-01T15:59:58;9.00;;;3.40;;
27670;SDS011;15077;49.704;9.908;2023-02-01T16:02:34;12.13;;;4.25;;
27670;SDS011;15077;49.704;9.908;2023-02-01T16:05:31;10.25;;;3.08;;
27670;SDS011;15077;49.704;9.908;2023-02-01T16:10:47;14.90;;;3.60;;
27670;SDS011;15077;49.704;9.908;2023-02-01T16:13:19;6.97;;;2.75;;
27670;SDS011;15077;49.704;9.908;2023-02-01T16:15:46;8.65;;;3.20;;
27670;SDS011;15077;49.704;9.908;2023-02-01T16:18:13;7.50;;;2.17;;
27670;SDS011;15077;49.704;9.908;2023-02-01T16:20:40;6.68;;;2.80;;
27670;SDS011;15077;49.704;9.908;2023-02-01T16:23:07;8.43;;;3.78;;
27670;SDS011;15077;49.704;9.908;2023-02-01T16:25:35;7.97;;;2.33;;
27670;SDS011;15077;49.704;9.908;2023-02-01T16:28:02;9.20;;;2.28;;
27670;SDS011;15077;49.704;9.908;2023-02-01T16:30:30;7.05;;;2.33;;
27670;SDS011;15077;49.704;9.908;2023-02-01T16:32:58;16.17;;;2.88;;
27670;SDS011;15077;49.704;9.908;2023-02-01T16:35:31;10.77;;;3.35;;
27670;SDS011;15077;49.704;9.908;2023-02-01T16:38:21;12.18;;;3.42;;
27670;SDS011;15077;49.704;9.908;2023-02-01T16:40:47;6.78;;;2.55;;
27670;SDS011;15077;49.704;9.908;2023-02-01T16:43:18;7.75;;;2.42;;
27670;SDS011;15077;49.704;9.908;2023-02-01T16:45:47;10.00;;;3.42;;
27670;SDS011;15077;49.704;9.908;2023-02-01T16:48:25;12.93;;;3.67;;
27670;SDS011;15077;49.704;9.908;2023-02-01T16:50:59;7.80;;;2.55;;
27670;SDS011;15077;49.704;9.908;2023-02-01T16:53:29;11.68;;;3.70;;
27670;SDS011;15077;49.704;9.908;2023-02-01T16:55:56;11.13;;;3.60;;
27670;SDS011;15077;49.704;9.908;2023-02-01T16:58:23;8.82;;;3.10;;
27670;SDS011;15077;49.704;9.908;2023-02-01T17:00:50;10.35;;;2.88;;
27670;SDS011;15077;49.704;9.908;2023-02-01T17:03:17;9.02;;;2.88;;
27670;SDS011;15077;49.704;9.908;2023-02-01T17:05:45;9.15;;;3.58;;
27670;SDS011;15077;49.704;9.908;2023-02-01T17:08:18;13.18;;;2.83;;
27670;SDS011;15077;49.704;9.908;2023-02-01T17:10:54;11.35;;;3.38;;
27670;SDS011;15077;49.704;9.908;2023-02-01T17:13:20;6.53;;;2.42;;
27670;SDS011;15077;49.704;9.908;2023-02-01T17:15:50;9.00;;;3.13;;
27670;SDS011;15077;49.704;9.908;2023-02-01T17:18:23;11.90;;;5.38;;
27670;SDS011;15077;49.704;9.908;2023-02-01T17:20:50;12.50;;;2.97;;
27670;SDS011;15077;49.704;9.908;2023-02-01T17:23:17;15.95;;;4.13;;
27670;SDS011;15077;49.704;9.908;2023-02-01T17:25:44;8.07;;;2.78;;
27670;SDS011;15077;49.704;9.908;2023-02-01T17:28:12;12.25;;;4.03;;
27670;SDS011;15077;49.704;9.908;2023-02-01T17:30:38;13.13;;;3.75;;
27670;SDS011;15077;49.704;9.908;2023-02-01T17:33:06;17.90;;;5.78;;
27670;SDS011;15077;49.704;9.908;2023-02-01T17:36:00;34.10;;;14.25;;
27670;SDS011;15077;49.704;9.908;2023-02-01T17:38:28;15.27;;;4.97;;
27670;SDS011;15077;49.704;9.908;2023-02-01T17:40:54;11.30;;;4.63;;
27670;SDS011;15077;49.704;9.908;2023-02-01T17:43:21;7.13;;;2.85;;
27670;SDS011;15077;49.704;9.908;2023-02-01T17:45:54;11.57;;;3.47;;
27670;SDS011;15077;49.704;9.908;2023-02-01T17:48:28;6.60;;;2.40;;
27670;SDS011;15077;49.704;9.908;2023-02-01T17:50:54;8.15;;;2.88;;
27670;SDS011;15077;49.704;9.908;2023-02-01T17:53:26;6.18;;;2.38;;
27670;SDS011;15077;49.704;9.908;2023-02-01T17:55:53;7.47;;;2.35;;
27670;SDS011;15077;49.704;9.908;2023-02-01T17:58:22;11.70;;;3.30;;
27670;SDS011;15077;49.704;9.908;2023-02-01T18:00:48;8.15;;;2.30;;
27670;SDS011;15077;49.704;9.908;2023-02-01T18:03:22;11.65;;;2.95;;
27670;SDS011;15077;49.704;9.908;2023-02-01T18:05:55;17.92;;;5.78;;
27670;SDS011;15077;49.704;9.908;2023-02-01T18:08:23;11.05;;;3.45;;
27670;SDS011;15077;49.704;9.908;2023-02-01T18:10:54;8.40;;;3.22;;
27670;SDS011;15077;49.704;9.908;2023-02-01T18:13:26;12.30;;;3.97;;
27670;SDS011;15077;49.704;9.908;2023-02-01T18:15:53;8.65;;;3.00;;
27670;SDS011;15077;49.704;9.908;2023-02-01T18:18:19;5.68;;;2.38;;
27670;SDS011;15077;49.704;9.908;2023-02-01T18:20:45;8.50;;;2.35;;
27670;SDS011;15077;49.704;9.908;2023-02-01T18:23:14;11.20;;;2.97;;
27670;SDS011;15077;49.704;9.908;2023-02-01T18:25:44;8.40;;;3.50;;
27670;SDS011;15077;49.704;9.908;2023-02-01T18:28:11;14.93;;;4.03;;
27670;SDS011;15077;49.704;9.908;2023-02-01T18:30:46;11.27;;;2.97;;
27670;SDS011;15077;49.704;9.908;2023-02-01T18:33:15;6.53;;;2.25;;
27670;SDS011;15077;49.704;9.908;2023-02-01T18:35:43;12.02;;;3.47;;
27670;SDS011;15077;49.704;9.908;2023-02-01T18:38:09;9.57;;;2.70;;
27670;SDS011;15077;49.704;9.908;2023-02-01T18:40:36;9.90;;;3.22;;
27670;SDS011;15077;49.704;9.908;2023-02-01T18:43:17;8.48;;;2.53;;